Bon Accord, Canada
Current Conditions -  °F | °C
As of 3:00 AM on Tuesday 21 Oct 2014 (Local Time) from CYED Reporting Station
Clear Clear  
Wind Chill: 41°   Ceiling: Unl
Heat Index: 45°   Visibility: 9mi
Dew Point: 37°   Wind: 6mph
Humidity: 76%   Direction: 290°WNW
Pressure: 29.55"   Gusts: NA
Location:  53.83°N, 113.42°W
Report Text: CYED 210900Z AUTO 29005KT 9SM CLR 07/03 A2955 RMK SLP012
Loading
Personal Weather Stations






























Interactive Weather Map
Tropical Storm Tracking
New forecast layout! Learn more

10-Day Weather Forecast

Advertisements
Track Severe Weather on mobile